CheckWX is a tool to help pilots better visualize weather data.  It is not intended as a substitute for an official pre-flight weather briefing.

14:31:49 UTC

VTCP TAF
Phrae Airport
Thailand
TAF VTCP 221100Z 2212/2312 20005KT 9999 FEW025 BECMG 2221/2223 4000 BR BECMG 2301/2303 9999 NSW

Oct-22@
12:00 UTC

Oct-22 @ 12:00 UTC

Oct-22@
21:00 UTC

Oct-22 @ 21:00 UTC

TAF VTCP 221100Z 2212/2312 20005KT 9999 FEW025
Wind
  • 200° at 5 KTS
Cloud Levels
  • Few at 2,500' AGL

Oct-22@
21:00 UTC

Oct-22 @ 21:00 UTC

Oct-23@
01:00 UTC

Oct-23 @ 01:00 UTC

BECMG 2221/2223 4000 BR

Becoming

Becoming Conditions expected by Tue, Oct 22, 2019 @ 23:00 UTC

Wind
  • 200° at 5 KTS
Conditions
Mist
Cloud Levels
  • Few at 2,500' AGL

Oct-23@
01:00 UTC

Oct-23 @ 01:00 UTC

Oct-23@
12:00 UTC

Oct-23 @ 12:00 UTC

BECMG 2301/2303 9999 NSW

Becoming

Becoming Conditions expected by Wed, Oct 23, 2019 @ 03:00 UTC

Wind
  • 200° at 5 KTS
Conditions
No significant weather
Cloud Levels
  • Few at 2,500' AGL